createdAt,value
2023-05-23T00:00:02.458Z,25.40
2023-05-23T00:01:02.462Z,26.20
2023-05-23T00:02:02.476Z,25.40
2023-05-23T00:03:02.478Z,27.20
2023-05-23T00:04:02.455Z,27.40
2023-05-23T00:05:02.412Z,28.00
2023-05-23T00:06:02.408Z,27.60
2023-05-23T00:07:02.392Z,27.40
2023-05-23T00:08:02.366Z,28.20
2023-05-23T00:09:02.381Z,28.50
2023-05-23T00:10:02.470Z,28.90
2023-05-23T00:11:02.340Z,28.80
2023-05-23T00:12:02.344Z,30.70
2023-05-23T00:13:02.325Z,33.00
2023-05-23T00:14:02.302Z,32.00
2023-05-23T00:15:02.312Z,32.60
2023-05-23T00:16:02.303Z,32.80
2023-05-23T00:17:02.401Z,31.70
2023-05-23T00:18:02.306Z,32.80
2023-05-23T00:19:02.255Z,33.30
2023-05-23T00:20:02.233Z,33.00
2023-05-23T00:21:02.231Z,35.30
2023-05-23T00:22:02.225Z,36.60
2023-05-23T00:23:02.207Z,33.40
2023-05-23T00:24:02.258Z,34.40
2023-05-23T00:25:02.338Z,35.30
2023-05-23T00:26:02.301Z,34.00
2023-05-23T00:27:02.178Z,33.70
2023-05-23T00:28:02.150Z,33.40
2023-05-23T00:29:02.172Z,33.60
2023-05-23T00:30:02.139Z,35.20
2023-05-23T00:31:02.194Z,34.60
2023-05-23T00:32:02.113Z,32.80
2023-05-23T00:33:02.116Z,32.70
2023-05-23T00:34:02.092Z,32.30
2023-05-23T00:35:02.076Z,32.20
2023-05-23T00:36:02.100Z,32.30
2023-05-23T00:37:02.066Z,31.00
2023-05-23T00:38:02.038Z,31.90
2023-05-23T00:39:02.059Z,32.50
2023-05-23T00:40:02.090Z,30.30
2023-05-23T00:41:02.027Z,30.60
2023-05-23T00:42:02.125Z,30.20
2023-05-23T00:43:01.988Z,30.50
2023-05-23T00:44:01.967Z,30.20
2023-05-23T00:45:01.985Z,29.90
2023-05-23T00:46:01.993Z,29.00
2023-05-23T00:47:01.940Z,29.40
2023-05-23T00:48:02.003Z,29.50
2023-05-23T00:49:01.924Z,29.30
2023-05-23T00:50:01.909Z,29.00
2023-05-23T00:51:01.917Z,27.80
2023-05-23T00:52:01.891Z,29.10
2023-05-23T00:53:01.874Z,28.50
2023-05-23T00:54:01.861Z,27.40
2023-05-23T00:55:01.893Z,27.40
2023-05-23T00:56:01.840Z,27.70
2023-05-23T00:57:01.853Z,26.40
2023-05-23T00:58:01.944Z,26.10
2023-05-23T00:59:01.820Z,26.30
2023-05-23T01:00:01.801Z,24.10
2023-05-23T01:01:01.796Z,24.90
2023-05-23T01:02:01.874Z,24.50
2023-05-23T01:03:01.940Z,23.70
2023-05-23T01:04:01.842Z,24.00
2023-05-23T01:05:01.753Z,23.20
2023-05-23T01:34:37.540Z,20.40
2023-05-23T01:35:37.391Z,16.20
2023-05-23T01:36:37.370Z,15.20
2023-05-23T01:37:37.368Z,15.80
2023-05-23T01:38:37.369Z,15.80
2023-05-23T01:39:37.360Z,15.60
2023-05-23T01:40:37.330Z,16.30
2023-05-23T01:41:37.372Z,15.30
2023-05-23T01:42:37.331Z,13.80
2023-05-23T01:43:37.306Z,14.00
2023-05-23T01:44:37.326Z,13.90
2023-05-23T01:45:37.345Z,13.70
2023-05-23T01:46:37.280Z,13.90
2023-05-23T01:47:37.314Z,14.50
2023-05-23T01:48:37.254Z,13.50
2023-05-23T01:49:37.252Z,13.30
2023-05-23T01:50:37.340Z,13.70
2023-05-23T01:51:37.299Z,13.80
2023-05-23T01:52:37.239Z,13.80
2023-05-23T01:53:37.255Z,12.90
2023-05-23T01:54:37.242Z,13.20
2023-05-23T01:55:37.268Z,13.40
2023-05-23T01:56:37.174Z,13.30
2023-05-23T01:57:37.150Z,13.50
2023-05-23T01:58:37.136Z,13.00
2023-05-23T01:59:37.171Z,13.20
2023-05-23T02:00:37.126Z,13.70
2023-05-23T02:01:37.277Z,13.20
2023-05-23T02:02:37.195Z,14.00
2023-05-23T02:03:37.112Z,13.30
2023-05-23T02:04:37.088Z,12.80
2023-05-23T02:05:37.080Z,13.50
2023-05-23T02:06:37.190Z,13.60
2023-05-23T02:07:37.052Z,12.80
2023-05-23T02:08:37.048Z,13.30
2023-05-23T02:09:37.022Z,13.60
2023-05-23T02:10:37.042Z,12.80
2023-05-23T02:11:37.016Z,13.60
2023-05-23T02:12:37.002Z,13.30
2023-05-23T02:13:36.993Z,13.70
2023-05-23T02:14:36.962Z,13.90
2023-05-23T02:15:36.961Z,13.10
2023-05-23T02:16:36.987Z,13.50
2023-05-23T02:17:36.985Z,14.40
2023-05-23T02:18:36.926Z,14.10
2023-05-23T02:19:37.083Z,14.30
2023-05-23T02:20:36.894Z,13.70
2023-05-23T02:21:36.898Z,13.30
2023-05-23T02:22:36.993Z,13.10
2023-05-23T02:23:36.877Z,13.60
2023-05-23T02:24:36.858Z,14.10
2023-05-23T02:25:36.856Z,13.70
2023-05-23T02:26:36.824Z,13.70
2023-05-23T02:27:36.841Z,13.70
2023-05-23T02:28:36.810Z,13.80
2023-05-23T02:29:36.811Z,13.70
2023-05-23T02:30:36.784Z,14.20
2023-05-23T02:31:36.850Z,15.00
2023-05-23T02:32:36.801Z,14.30
2023-05-23T02:33:36.773Z,13.60
2023-05-23T02:34:36.748Z,14.00
2023-05-23T02:35:36.746Z,13.80
2023-05-23T02:36:36.744Z,14.30
2023-05-23T02:37:36.712Z,13.40
2023-05-23T02:38:36.825Z,14.10
2023-05-23T02:39:36.694Z,14.50
2023-05-23T02:40:36.674Z,14.70
2023-05-23T02:41:36.682Z,14.80
2023-05-23T02:42:36.659Z,14.30
2023-05-23T02:43:36.643Z,14.60
2023-05-23T02:44:36.643Z,15.00
2023-05-23T02:45:36.625Z,14.80
2023-05-23T02:46:36.709Z,14.80
2023-05-23T02:47:36.637Z,14.50
2023-05-23T02:48:36.593Z,15.20
2023-05-23T02:49:36.593Z,14.90
2023-05-23T02:50:36.569Z,14.70
2023-05-23T02:51:36.554Z,14.10
2023-05-23T02:52:36.559Z,14.50
2023-05-23T02:53:36.531Z,14.20
2023-05-23T02:54:36.650Z,14.40
2023-05-23T02:55:36.530Z,14.60
2023-05-23T02:56:36.516Z,14.40
2023-05-23T02:57:36.491Z,14.40
2023-05-23T02:58:36.473Z,14.00
2023-05-23T02:59:36.464Z,14.60
2023-05-23T03:00:36.468Z,15.60
2023-05-23T03:01:36.467Z,14.80
2023-05-23T03:02:36.500Z,15.00
2023-05-23T03:03:36.601Z,15.60
2023-05-23T03:04:36.421Z,15.30
2023-05-23T03:05:36.421Z,15.10
2023-05-23T03:06:36.383Z,14.80
2023-05-23T03:07:36.382Z,15.30
2023-05-23T03:08:36.359Z,15.60
2023-05-23T03:09:36.361Z,16.40
2023-05-23T03:10:36.477Z,15.50
2023-05-23T03:11:36.339Z,15.90
2023-05-23T03:12:36.311Z,15.80
2023-05-23T03:13:36.317Z,16.20
2023-05-23T03:14:36.290Z,14.70
2023-05-23T03:15:36.319Z,16.00
2023-05-23T03:16:36.327Z,16.00
2023-05-23T03:17:36.297Z,15.00
2023-05-23T03:18:36.249Z,15.80
2023-05-23T03:19:36.771Z,15.80
2023-05-23T03:20:36.244Z,16.60
2023-05-23T03:21:36.248Z,16.20
2023-05-23T03:22:36.203Z,16.30
2023-05-23T03:23:36.197Z,16.40
2023-05-23T03:24:36.181Z,17.10
2023-05-23T03:25:36.171Z,16.30
2023-05-23T03:26:36.304Z,16.10
2023-05-23T03:27:36.153Z,15.80
2023-05-23T03:28:36.140Z,16.40
2023-05-23T03:29:36.141Z,16.70
2023-05-23T03:30:36.122Z,17.60
2023-05-23T03:31:36.165Z,17.50
2023-05-23T03:32:36.172Z,16.70
2023-05-23T03:33:38.230Z,16.20
2023-05-23T03:34:43.090Z,16.20
2023-05-23T03:35:36.075Z,16.00
2023-05-23T03:36:36.056Z,17.10
2023-05-23T03:37:36.096Z,15.50
2023-05-23T03:38:36.025Z,17.10
2023-05-23T03:39:37.950Z,16.90
2023-05-23T03:40:36.006Z,16.40
2023-05-23T03:41:35.994Z,17.10
2023-05-23T03:42:36.136Z,16.30
2023-05-23T03:43:35.982Z,16.60
2023-05-23T03:44:35.959Z,16.40
2023-05-23T03:45:35.997Z,16.00
2023-05-23T03:46:36.066Z,16.60
2023-05-23T03:47:35.963Z,16.20
2023-05-23T03:48:35.999Z,16.30
2023-05-23T03:49:35.903Z,16.30
2023-05-23T03:50:35.892Z,16.30
2023-05-23T03:51:35.902Z,17.70
2023-05-23T03:52:35.882Z,15.80
2023-05-23T03:53:36.715Z,16.60
2023-05-23T03:54:35.867Z,16.80
2023-05-23T03:55:35.840Z,16.50
2023-05-23T03:56:35.828Z,17.10
2023-05-23T03:57:35.840Z,17.80
2023-05-23T03:58:35.946Z,16.70
2023-05-23T03:59:35.811Z,17.30
2023-05-23T04:00:35.783Z,16.50
2023-05-23T04:01:35.784Z,17.00
2023-05-23T04:02:35.904Z,17.80
2023-05-23T04:03:35.934Z,18.00
2023-05-23T04:04:35.911Z,17.00
2023-05-23T04:05:35.741Z,18.40
2023-05-23T04:06:35.741Z,18.30
2023-05-23T04:07:35.720Z,17.70
2023-05-23T04:08:35.712Z,18.40
2023-05-23T04:09:35.693Z,18.70
2023-05-23T04:10:35.669Z,18.60
2023-05-23T04:11:35.685Z,19.40
2023-05-23T04:12:35.664Z,19.80
2023-05-23T04:13:35.717Z,20.60
2023-05-23T04:14:35.760Z,19.90
2023-05-23T04:15:35.622Z,20.70
2023-05-23T04:16:35.881Z,18.70
2023-05-23T04:17:35.637Z,20.50
2023-05-23T04:18:35.593Z,20.30
2023-05-23T04:19:35.670Z,20.50
2023-05-23T04:20:35.569Z,19.90
2023-05-23T04:21:35.574Z,20.50
2023-05-23T04:22:35.549Z,20.20
2023-05-23T04:23:35.556Z,21.30
2023-05-23T04:24:35.530Z,20.40
2023-05-23T04:25:35.521Z,20.20
2023-05-23T04:26:35.519Z,21.30
2023-05-23T04:27:36.368Z,21.50
2023-05-23T04:28:35.495Z,21.50
2023-05-23T04:29:35.484Z,21.20
2023-05-23T04:30:35.578Z,20.60
2023-05-23T04:31:35.532Z,20.70
2023-05-23T04:32:35.466Z,20.90
2023-05-23T04:33:35.426Z,22.00
2023-05-23T04:34:35.437Z,21.20
2023-05-23T04:35:35.404Z,21.70
2023-05-23T04:36:35.396Z,21.80
2023-05-23T04:37:35.409Z,22.10
2023-05-23T04:58:38.894Z,20.10
2023-05-23T04:59:38.760Z,21.60
2023-05-23T05:00:39.015Z,21.40
2023-05-23T05:01:38.763Z,20.40
2023-05-23T05:02:38.760Z,20.00
2023-05-23T05:03:38.734Z,19.60
2023-05-23T05:04:38.708Z,19.20
2023-05-23T05:05:38.695Z,19.70
2023-05-23T05:06:38.678Z,20.90
2023-05-23T05:07:38.681Z,19.50
2023-05-23T05:08:38.669Z,20.00
2023-05-23T05:09:38.656Z,18.40
2023-05-23T05:10:38.900Z,19.30
2023-05-23T05:11:38.625Z,18.70
2023-05-23T05:12:38.611Z,19.20
2023-05-23T05:13:38.610Z,17.60
2023-05-23T05:14:38.705Z,18.50
2023-05-23T05:15:38.593Z,17.70
2023-05-23T05:16:38.623Z,18.60
2023-05-23T05:17:38.591Z,19.00
2023-05-23T05:18:38.580Z,19.20
2023-05-23T05:19:38.585Z,18.30
2023-05-23T05:20:38.632Z,17.80
2023-05-23T05:21:38.522Z,17.90
2023-05-23T05:22:38.563Z,17.90
2023-05-23T05:23:38.510Z,18.50
2023-05-23T05:24:38.483Z,18.60
2023-05-23T05:25:38.496Z,18.00
2023-05-23T05:26:38.458Z,18.40
2023-05-23T05:27:38.450Z,18.60
2023-05-23T05:28:38.434Z,17.30
2023-05-23T05:29:38.444Z,18.80
2023-05-23T05:30:38.719Z,17.80
2023-05-23T05:31:38.489Z,18.20
2023-05-23T05:32:38.439Z,18.60
2023-05-23T05:33:38.400Z,18.00
2023-05-23T05:34:38.384Z,18.60
2023-05-23T05:35:38.413Z,18.50
2023-05-23T05:36:38.350Z,17.80
2023-05-23T05:37:38.342Z,18.10
2023-05-23T05:38:38.356Z,19.50
2023-05-23T05:39:38.318Z,20.10
2023-05-23T05:40:38.363Z,18.60
2023-05-23T05:41:38.341Z,18.60
2023-05-23T05:42:38.302Z,18.00
2023-05-23T05:43:38.286Z,18.70
2023-05-23T05:44:38.268Z,18.90
2023-05-23T05:45:38.271Z,17.90
2023-05-23T05:46:38.376Z,17.70
2023-05-23T05:47:38.271Z,17.30
2023-05-23T05:48:38.232Z,18.90
2023-05-23T05:49:38.245Z,17.80
2023-05-23T05:50:38.646Z,17.90
2023-05-23T05:51:38.191Z,18.70
2023-05-23T05:52:38.174Z,18.30
2023-05-23T05:53:38.185Z,17.90
2023-05-23T05:54:38.162Z,18.20
2023-05-23T05:55:38.164Z,19.40
2023-05-23T05:56:38.165Z,18.50
2023-05-23T05:57:38.135Z,19.70
2023-05-23T05:58:38.114Z,19.60
2023-05-23T05:59:38.132Z,20.50
2023-05-23T06:00:38.148Z,19.40
2023-05-23T06:01:38.121Z,20.40
2023-05-23T06:02:38.345Z,20.40
2023-05-23T06:03:38.751Z,20.10
2023-05-23T06:04:38.119Z,20.50
2023-05-23T06:05:38.043Z,19.90
2023-05-23T06:06:38.144Z,19.40
2023-05-23T06:07:38.062Z,19.70
2023-05-23T06:08:38.015Z,21.00
2023-05-23T06:09:38.040Z,20.30
2023-05-23T06:10:38.037Z,20.00
2023-05-23T06:11:37.983Z,20.60
2023-05-23T06:12:37.979Z,19.70
2023-05-23T06:30:14.520Z,19.30
2023-05-23T06:31:14.377Z,20.00
2023-05-23T06:38:10.082Z,18.10
2023-05-23T06:39:11.336Z,19.00
2023-05-23T06:40:10.208Z,18.70
2023-05-23T07:03:49.575Z,18.10
2023-05-23T07:04:49.066Z,10.90
2023-05-23T07:05:49.145Z,10.80
2023-05-23T07:06:49.060Z,10.50
2023-05-23T07:07:49.080Z,10.40
2023-05-23T07:08:49.045Z,9.90
2023-05-23T07:09:49.572Z,11.10
2023-05-23T07:10:49.009Z,10.40
2023-05-23T07:11:49.031Z,10.00
2023-05-23T07:12:49.005Z,10.00
2023-05-23T07:13:49.041Z,9.40
2023-05-23T07:14:48.962Z,9.20
2023-05-23T07:15:48.965Z,7.50
2023-05-23T07:16:48.944Z,7.90
2023-05-23T07:17:49.148Z,7.90
2023-05-23T07:18:49.052Z,8.10
2023-05-23T07:19:49.052Z,7.60
2023-05-23T07:20:48.901Z,7.80
2023-05-23T07:21:48.944Z,7.70
2023-05-23T07:22:49.343Z,6.90
2023-05-23T07:23:49.060Z,7.50
2023-05-23T07:24:48.962Z,7.40
2023-05-23T07:26:00.972Z,7.70
2023-05-23T07:26:48.875Z,8.00
2023-05-23T07:27:48.830Z,6.60
2023-05-23T07:28:48.799Z,7.30
2023-05-23T07:29:48.828Z,6.10
2023-05-23T07:30:49.154Z,6.50
2023-05-23T07:31:48.788Z,6.10
2023-05-23T07:32:48.855Z,6.00
2023-05-23T07:33:48.757Z,6.10
2023-05-23T07:34:48.757Z,5.00
2023-05-23T07:35:48.875Z,4.90
2023-05-23T07:36:56.236Z,4.90
2023-05-23T07:37:50.195Z,4.60
2023-05-23T07:38:48.692Z,4.60
2023-05-23T07:39:48.685Z,4.10
2023-05-23T07:40:58.856Z,4.00
2023-05-23T07:41:48.665Z,3.80
2023-05-23T07:42:48.657Z,4.10
2023-05-23T07:43:48.656Z,3.60
2023-05-23T07:44:48.631Z,3.70
2023-05-23T07:45:48.656Z,4.00
2023-05-23T07:46:48.627Z,3.50
2023-05-23T07:52:53.905Z,2.10
2023-05-23T07:53:52.865Z,2.90
2023-05-23T07:55:00.404Z,3.00
2023-05-23T07:55:52.849Z,2.90
2023-05-23T07:56:52.829Z,2.70
2023-05-23T07:57:52.850Z,2.40
2023-05-23T07:58:52.842Z,2.60
2023-05-23T07:59:52.797Z,2.60
2023-05-23T08:00:53.390Z,2.30
2023-05-23T08:01:52.867Z,2.10
2023-05-23T08:02:52.832Z,2.00
2023-05-23T08:03:52.825Z,1.80
2023-05-23T08:04:52.938Z,1.60
2023-05-23T08:05:52.758Z,1.90
2023-05-23T08:07:04.806Z,2.10
2023-05-23T08:07:52.744Z,1.70
2023-05-23T08:08:53.572Z,1.70
2023-05-23T08:09:54.808Z,1.70
2023-05-23T08:10:52.697Z,1.50
2023-05-23T08:11:52.717Z,2.00
2023-05-23T08:12:52.708Z,1.90
2023-05-23T08:13:52.663Z,1.40
2023-05-23T08:14:52.849Z,1.80
2023-05-23T08:15:52.628Z,1.40
2023-05-23T08:16:52.795Z,2.10
2023-05-23T08:17:52.765Z,1.90
2023-05-23T08:18:52.630Z,1.90
2023-05-23T08:19:52.763Z,1.90
2023-05-23T08:20:52.576Z,1.80
2023-05-23T08:21:52.558Z,2.20
2023-05-23T08:22:52.587Z,2.30
2023-05-23T08:23:52.535Z,2.30
2023-05-23T08:24:52.565Z,2.30
2023-05-23T08:25:52.616Z,2.50
2023-05-23T08:26:52.503Z,2.40
2023-05-23T08:27:52.536Z,2.50
2023-05-23T08:28:52.602Z,2.40
2023-05-23T08:29:52.586Z,2.50
2023-05-23T08:30:52.472Z,2.70
2023-05-23T08:31:52.778Z,2.80
2023-05-23T08:32:52.468Z,2.30
2023-05-23T08:33:52.465Z,2.50
2023-05-23T08:34:52.426Z,2.40
2023-05-23T09:07:14.819Z,3.20
2023-05-23T09:08:14.759Z,2.50
2023-05-23T09:09:17.470Z,2.50
2023-05-23T09:10:14.708Z,2.20
2023-05-23T09:11:16.059Z,2.40
2023-05-23T09:12:14.679Z,2.50
2023-05-23T09:13:14.664Z,2.80
2023-05-23T09:14:14.684Z,2.40
2023-05-23T09:15:14.654Z,2.80
2023-05-23T09:16:14.710Z,3.20
2023-05-23T09:17:14.667Z,2.60
2023-05-23T09:18:14.636Z,2.70
2023-05-23T09:19:14.677Z,3.00
2023-05-23T09:20:14.870Z,2.50
2023-05-23T09:21:14.640Z,2.80
2023-05-23T09:22:14.582Z,3.30
2023-05-23T09:23:14.584Z,2.80
2023-05-23T09:24:14.564Z,2.80
2023-05-23T09:25:14.552Z,2.60
2023-05-23T09:26:14.539Z,2.90
2023-05-23T09:27:14.531Z,2.70
2023-05-23T10:19:31.279Z,2.30
2023-05-23T10:20:31.058Z,4.60
2023-05-23T10:21:31.009Z,4.50
2023-05-23T10:22:31.128Z,5.00
2023-05-23T10:23:35.962Z,4.60
2023-05-23T10:24:34.302Z,4.60
2023-05-23T10:25:33.986Z,5.20
2023-05-23T10:26:30.974Z,4.80
2023-05-23T10:27:31.611Z,4.40
2023-05-23T10:28:30.985Z,4.20
2023-05-23T10:29:32.185Z,4.50
2023-05-23T10:30:31.576Z,4.60
2023-05-23T10:31:30.910Z,4.50
2023-05-23T10:32:30.913Z,4.60
2023-05-23T10:33:31.868Z,4.70
2023-05-23T10:34:31.382Z,5.30
2023-05-23T10:35:30.965Z,5.20
2023-05-23T10:36:30.936Z,5.50
2023-05-23T10:37:31.366Z,5.30
2023-05-23T10:38:30.826Z,5.90
2023-05-23T10:39:30.821Z,5.40
2023-05-23T10:40:32.712Z,4.90
2023-05-23T10:41:55.019Z,5.20
2023-05-23T10:42:31.106Z,5.40
2023-05-23T10:43:31.269Z,5.10
2023-05-23T10:44:30.767Z,4.80
2023-05-23T10:45:31.694Z,5.40
2023-05-23T10:46:36.618Z,5.10
2023-05-23T10:47:30.867Z,4.80
2023-05-23T10:48:30.690Z,4.50
2023-05-23T10:49:33.670Z,4.30
2023-05-23T10:50:30.892Z,4.10
2023-05-23T10:51:30.689Z,4.30
2023-05-23T10:52:31.084Z,5.00
2023-05-23T10:53:30.965Z,4.10
2023-05-23T10:54:30.693Z,4.10
2023-05-23T10:55:30.976Z,4.00
2023-05-23T10:56:30.699Z,3.80
2023-05-23T10:57:33.433Z,3.90
2023-05-23T10:58:32.696Z,4.40
2023-05-23T10:59:32.479Z,4.30
2023-05-23T11:00:32.380Z,4.10
2023-05-23T11:01:32.023Z,4.00
2023-05-23T11:04:08.757Z,3.70
2023-05-23T11:05:08.662Z,3.70
2023-05-23T11:06:10.451Z,4.40
2023-05-23T11:07:08.928Z,3.80
2023-05-23T11:08:09.514Z,3.70
2023-05-23T11:09:08.674Z,3.80
2023-05-23T11:10:08.635Z,3.80
2023-05-23T11:11:08.680Z,3.60
2023-05-23T11:12:08.774Z,4.10
2023-05-23T11:13:21.461Z,4.00
2023-05-23T11:14:09.573Z,3.70
2023-05-23T11:15:08.565Z,4.20
2023-05-23T11:16:08.580Z,3.70
2023-05-23T11:17:08.741Z,3.90
2023-05-23T11:18:08.603Z,4.00
2023-05-23T11:19:08.567Z,4.10
2023-05-23T11:20:08.520Z,4.00
2023-05-23T11:21:08.492Z,4.20
2023-05-23T11:22:08.476Z,4.30
2023-05-23T11:23:08.479Z,4.20
2023-05-23T11:24:08.975Z,4.30
2023-05-23T11:25:08.454Z,4.40
2023-05-23T11:26:09.585Z,4.20
2023-05-23T11:27:08.421Z,4.40
2023-05-23T11:28:08.404Z,4.40
2023-05-23T11:29:08.395Z,4.00
2023-05-23T11:30:08.507Z,3.80
2023-05-23T11:31:08.384Z,4.60
2023-05-23T11:32:12.174Z,4.00
2023-05-23T11:33:08.432Z,3.60
2023-05-23T11:34:08.341Z,3.90
2023-05-23T11:35:08.361Z,4.50
2023-05-23T11:36:08.324Z,4.00
2023-05-23T11:37:08.302Z,3.60
2023-05-23T11:38:08.303Z,3.90
2023-05-23T11:39:08.306Z,3.80
2023-05-23T11:40:08.279Z,3.60
2023-05-23T11:41:08.281Z,3.60
2023-05-23T11:42:08.257Z,3.70
2023-05-23T11:43:08.291Z,3.20
2023-05-23T11:44:08.272Z,3.50
2023-05-23T11:45:08.223Z,3.20
2023-05-23T11:46:08.471Z,3.20
2023-05-23T11:47:08.233Z,3.20
2023-05-23T11:48:08.215Z,4.30
2023-05-23T11:49:08.174Z,3.40
2023-05-23T11:50:08.236Z,3.20
2023-05-23T11:51:08.154Z,3.10
2023-05-23T11:52:08.154Z,4.20
2023-05-23T11:53:08.150Z,3.10
2023-05-23T11:54:08.165Z,3.60
2023-05-23T11:55:08.131Z,3.60
2023-05-23T11:56:08.097Z,3.40
2023-05-23T11:57:08.095Z,3.70
2023-05-23T11:58:08.098Z,3.70
2023-05-23T11:59:08.059Z,4.40
2023-05-23T12:00:08.088Z,4.20
2023-05-23T12:01:08.095Z,3.60
2023-05-23T12:02:08.105Z,3.50
2023-05-23T12:03:08.158Z,3.60
2023-05-23T12:04:08.132Z,4.10
2023-05-23T12:05:08.941Z,3.20
2023-05-23T12:06:07.984Z,3.50
2023-05-23T12:07:08.103Z,3.40
2023-05-23T12:08:07.969Z,4.00
2023-05-23T12:09:07.964Z,3.10
2023-05-23T12:10:08.482Z,3.40
2023-05-23T12:11:07.986Z,3.90
2023-05-23T12:12:07.989Z,4.10
2023-05-23T12:13:10.466Z,3.20
2023-05-23T12:14:07.907Z,3.70
2023-05-23T12:15:07.904Z,4.00
2023-05-23T12:16:07.948Z,4.20
2023-05-23T12:17:07.896Z,3.20
2023-05-23T12:18:08.621Z,3.30
2023-05-23T12:19:07.933Z,3.80
2023-05-23T12:20:07.844Z,3.40
2023-05-23T12:21:07.832Z,3.00
2023-05-23T12:22:07.824Z,3.00
2023-05-23T12:23:07.799Z,3.20
2023-05-23T12:24:07.774Z,3.10
2023-05-23T12:25:07.802Z,3.20
2023-05-23T12:26:08.244Z,3.20
2023-05-23T12:27:07.767Z,3.10
2023-05-23T12:28:07.733Z,3.40
2023-05-23T12:29:07.735Z,3.30
2023-05-23T12:30:07.732Z,3.30
2023-05-23T12:31:07.774Z,3.10
2023-05-23T12:32:07.716Z,3.70
2023-05-23T12:33:07.729Z,3.00
2023-05-23T12:34:07.711Z,3.40
2023-05-23T12:35:07.676Z,3.80
2023-05-23T12:36:07.659Z,3.20
2023-05-23T12:37:19.042Z,3.40
2023-05-23T12:38:08.460Z,3.80
2023-05-23T12:39:07.747Z,3.30
2023-05-23T12:40:07.613Z,3.40
2023-05-23T12:41:07.612Z,3.70
2023-05-23T12:42:07.596Z,3.50
2023-05-23T12:43:08.060Z,3.30
2023-05-23T12:44:07.578Z,3.20
2023-05-23T12:45:07.568Z,3.50
2023-05-23T12:46:07.565Z,3.60
2023-05-23T12:47:07.597Z,3.50
2023-05-23T12:48:07.636Z,3.60
2023-05-23T12:49:07.523Z,3.70
2023-05-23T12:50:07.552Z,3.60
2023-05-23T12:51:07.515Z,4.00
2023-05-23T12:52:07.484Z,3.40
2023-05-23T12:53:07.504Z,4.00
2023-05-23T12:54:07.467Z,3.70
2023-05-23T12:55:07.452Z,3.50
2023-05-23T12:56:07.436Z,3.60
2023-05-23T12:57:07.422Z,3.40
2023-05-23T12:58:07.421Z,3.40
2023-05-23T12:59:07.433Z,3.50
2023-05-23T13:00:07.401Z,3.20
2023-05-23T13:01:07.466Z,3.40
2023-05-23T13:02:07.358Z,3.20
2023-05-23T13:03:07.452Z,3.30
2023-05-23T13:58:08.616Z,3.40
2023-05-23T13:59:08.569Z,3.50
2023-05-23T14:00:15.567Z,3.40
2023-05-23T14:01:08.539Z,3.00
2023-05-23T14:02:08.575Z,2.70
2023-05-23T14:03:08.601Z,2.70
2023-05-23T14:04:08.525Z,3.20
2023-05-23T14:05:08.621Z,3.50
2023-05-23T14:06:08.498Z,3.20
2023-05-23T14:07:08.503Z,3.50
2023-05-23T14:08:08.487Z,3.10
2023-05-23T14:09:08.478Z,3.30
2023-05-23T14:10:08.448Z,3.70
2023-05-23T14:11:08.464Z,3.50
2023-05-23T14:12:08.441Z,3.30
2023-05-23T14:13:08.418Z,2.90
2023-05-23T14:14:08.427Z,3.00
2023-05-23T14:15:08.403Z,3.30
2023-05-23T14:16:08.471Z,3.10
2023-05-23T14:17:08.398Z,2.90
2023-05-23T14:54:26.079Z,3.50
2023-05-23T14:55:26.027Z,2.80
2023-05-23T14:56:26.014Z,3.00
2023-05-23T14:57:26.011Z,3.00
2023-05-23T14:58:26.000Z,2.40
2023-05-23T14:59:25.997Z,2.80
2023-05-23T15:00:25.968Z,2.90
2023-05-23T15:01:26.156Z,2.90
2023-05-23T15:02:25.996Z,3.10
2023-05-23T15:03:25.996Z,3.30
2023-05-23T15:04:26.072Z,2.60
2023-05-23T15:05:26.018Z,2.90
2023-05-23T15:06:25.945Z,2.80
2023-05-23T15:07:25.895Z,3.00
2023-05-23T15:08:25.901Z,2.70
2023-05-23T15:09:25.892Z,2.80
2023-05-23T15:10:25.898Z,3.00
2023-05-23T15:11:27.403Z,3.10
2023-05-23T15:12:25.840Z,3.10
2023-05-23T15:13:25.826Z,2.60
2023-05-23T15:14:25.827Z,2.90
2023-05-23T15:15:25.811Z,2.70
2023-05-23T15:16:25.848Z,3.00
2023-05-23T15:17:26.770Z,2.80
2023-05-23T15:18:38.974Z,2.90
2023-05-23T15:19:25.809Z,3.00
2023-05-23T15:20:25.840Z,2.70
2023-05-23T15:21:26.814Z,3.20
2023-05-23T15:54:00.535Z,2.20
2023-05-23T15:54:50.049Z,2.80
2023-05-23T15:55:49.067Z,2.40
2023-05-23T15:56:49.062Z,2.70
2023-05-23T15:57:49.016Z,2.20
2023-05-23T15:58:49.004Z,2.90
2023-05-23T15:59:48.998Z,2.60
2023-05-23T16:00:49.005Z,2.90
2023-05-23T16:01:49.069Z,2.50
2023-05-23T16:02:49.057Z,2.80
2023-05-23T16:03:49.626Z,2.40
2023-05-23T16:04:48.958Z,2.20
2023-05-23T16:05:49.808Z,2.90
2023-05-23T16:06:48.916Z,2.70
2023-05-23T16:07:48.915Z,2.40
2023-05-23T16:08:48.897Z,2.90
2023-05-23T16:09:48.921Z,2.90
2023-05-23T16:10:48.903Z,2.90
2023-05-23T16:11:48.876Z,2.30
2023-05-23T16:12:48.896Z,2.20
2023-05-23T16:13:48.847Z,2.20
2023-05-23T16:14:48.828Z,3.00
2023-05-23T16:15:48.835Z,2.60
2023-05-23T16:16:48.863Z,2.60
2023-05-23T16:17:48.835Z,2.40
2023-05-23T16:18:48.920Z,2.40
2023-05-23T16:19:48.785Z,2.90
2023-05-23T16:20:48.779Z,2.70
2023-05-23T16:21:48.760Z,3.00
2023-05-23T16:22:48.755Z,3.30
2023-05-23T16:23:48.799Z,2.70
2023-05-23T16:24:48.736Z,2.50
2023-05-23T16:25:48.732Z,2.70
2023-05-23T16:26:48.703Z,2.80
2023-05-23T16:27:48.689Z,2.50
2023-05-23T16:28:48.692Z,2.50
2023-05-23T16:29:48.691Z,2.80
2023-05-23T16:30:48.707Z,2.40
2023-05-23T16:31:48.725Z,2.60
2023-05-23T16:32:48.977Z,2.20
2023-05-23T16:33:48.644Z,2.20
2023-05-23T16:34:53.916Z,2.50
2023-05-23T16:35:48.608Z,2.80
2023-05-23T16:36:48.593Z,2.70
2023-05-23T16:37:48.596Z,2.10
2023-05-23T16:38:48.589Z,2.60
2023-05-23T16:39:48.563Z,2.60
2023-05-23T16:40:48.564Z,2.30
2023-05-23T16:41:48.588Z,2.40
2023-05-23T16:42:48.591Z,2.40
2023-05-23T16:43:48.571Z,2.40
2023-05-23T16:44:48.728Z,2.20
2023-05-23T16:45:48.702Z,2.40
2023-05-23T16:46:48.513Z,2.00
2023-05-23T16:47:48.496Z,3.00
2023-05-23T16:48:48.481Z,2.40
2023-05-23T16:49:48.463Z,2.70
2023-05-23T16:50:48.444Z,2.20
2023-05-23T16:51:48.907Z,2.00
2023-05-23T16:52:48.419Z,2.70
2023-05-23T16:53:48.505Z,2.10
2023-05-23T16:54:48.468Z,2.40
2023-05-23T16:55:48.401Z,2.50
2023-05-23T16:56:48.389Z,2.10
2023-05-23T16:57:48.389Z,2.40
2023-05-23T16:58:48.410Z,2.70
2023-05-23T16:59:48.350Z,2.80
2023-05-23T17:00:48.338Z,2.40
2023-05-23T17:01:48.472Z,2.70
2023-05-23T17:02:48.450Z,2.30
2023-05-23T17:03:48.533Z,2.30
2023-05-23T17:11:32.599Z,2.20
2023-05-23T17:12:32.567Z,2.50
2023-05-23T17:13:32.574Z,2.30
2023-05-23T17:14:32.572Z,2.10
2023-05-23T17:15:32.575Z,2.50
2023-05-23T18:28:09.425Z,1.70
2023-05-23T18:29:09.393Z,2.40
2023-05-23T18:30:09.382Z,2.50
2023-05-23T18:31:09.372Z,2.00
2023-05-23T18:32:09.362Z,2.90
2023-05-23T18:33:09.515Z,2.30
2023-05-23T18:34:09.354Z,2.20
2023-05-23T18:35:09.323Z,2.10
2023-05-23T18:36:09.310Z,2.30
2023-05-23T18:37:10.211Z,1.80
2023-05-23T18:38:09.365Z,2.10
2023-05-23T18:39:09.285Z,2.40
2023-05-23T18:40:09.278Z,2.60
2023-05-23T18:41:09.269Z,1.90
2023-05-23T18:42:09.258Z,2.50
2023-05-23T18:43:09.251Z,2.20
2023-05-23T18:44:09.260Z,2.20
2023-05-23T18:45:09.244Z,1.90
2023-05-23T18:46:09.240Z,2.10
2023-05-23T18:47:09.654Z,2.80
2023-05-23T18:52:15.595Z,2.20
2023-05-23T18:53:15.582Z,1.80
2023-05-23T18:54:15.550Z,2.10
2023-05-23T18:55:15.541Z,2.00
2023-05-23T18:56:15.528Z,2.20
2023-05-23T18:57:15.521Z,2.10
2023-05-23T18:58:20.635Z,2.00
2023-05-23T18:59:15.523Z,2.20
2023-05-23T19:00:15.513Z,2.20
2023-05-23T19:01:15.478Z,2.40
2023-05-23T19:02:15.608Z,2.20
2023-05-23T19:03:15.573Z,2.70
2023-05-23T19:04:15.536Z,2.30
2023-05-23T19:05:15.449Z,2.40
2023-05-23T19:06:15.424Z,1.50
2023-05-23T19:07:15.411Z,2.50
2023-05-23T19:08:15.477Z,2.00
2023-05-23T19:09:15.403Z,2.50
2023-05-23T19:10:15.396Z,2.70
2023-05-23T19:11:15.364Z,2.90
2023-05-23T19:12:15.374Z,2.40
2023-05-23T19:13:15.347Z,1.90
